Terminal Aerodrome Forecast
Issued by NWS

Current Version | Previous Version | Text Only | Print | Product List | Glossary Off
Versions: 1 2 3 4 5 6 7 8 9 10 11 12 13 14 15 16 17 18 19 20 21

000
FTUS41 KPBZ 270539
TAFHLG
TAF
KHLG 270539Z 2706/2806 12007KT P6SM -RA OVC110
     FM270900 12012KT 3SM -RA BR OVC008
     FM271800 19011G19KT 6SM -RA SCT020 BKN030 PROB30 2718/2720 6SM
      -TSRA BKN015CB
     FM272300 23012KT P6SM OVC015=

USA.gov is the U.S. government's official web portal to all federal, state and local government web resources and services.